Time;durP1;ratioP1;P1;durP2;ratioP2;P2;SDS_P1;SDS_P2;PMS_P1;PMS_P2;Temp;Humidity;BMP_temperature;BMP_pressure;BME280_temperature;BME280_humidity;BME280_pressure;Samples;Min_cycle;Max_cycle;Signal;HPM_P1;HPM_P2
2021/04/20 00:01:19;;;;;;;37.85;21.58;;;6.30;99.90;;;;;;5008771;28;20361;-73
2021/04/20 00:03:47;;;;;;;35.45;24.20;;;6.30;99.90;;;;;;4996227;28;20022;-73
2021/04/20 00:06:12;;;;;;;38.88;22.38;;;6.30;99.90;;;;;;4996186;28;20328;-72
2021/04/20 00:08:38;;;;;;;35.90;22.75;;;6.20;99.90;;;;;;4996184;28;20014;-73
2021/04/20 00:11:04;;;;;;;36.33;22.90;;;6.20;99.90;;;;;;4994844;28;20037;-72
2021/04/20 00:13:30;;;;;;;35.53;21.58;;;6.20;99.90;;;;;;4996093;28;20033;-72
2021/04/20 00:15:57;;;;;;;36.20;20.70;;;6.20;99.90;;;;;;4996019;28;20026;-73
2021/04/20 00:18:22;;;;;;;34.67;22.08;;;6.30;99.90;;;;;;4995909;28;20501;-73
2021/04/20 00:20:48;;;;;;;32.50;20.42;;;6.20;99.90;;;;;;4995900;28;20031;-73
2021/04/20 00:23:14;;;;;;;36.00;21.15;;;6.20;99.90;;;;;;4996031;28;20062;-73
2021/04/20 00:25:40;;;;;;;37.25;22.55;;;6.20;99.90;;;;;;4994626;28;20524;-72
2021/04/20 00:28:06;;;;;;;35.40;21.27;;;6.20;99.90;;;;;;4995825;28;20030;-73
2021/04/20 00:30:33;;;;;;;34.83;21.60;;;6.20;99.90;;;;;;4995808;28;20441;-72
2021/04/20 00:32:59;;;;;;;36.53;21.55;;;6.20;99.90;;;;;;4995772;28;20034;-73
2021/04/20 00:35:24;;;;;;;32.03;20.70;;;6.20;99.90;;;;;;4995661;28;20410;-72
2021/04/20 00:37:50;;;;;;;29.83;19.30;;;6.20;99.90;;;;;;4994390;28;20022;-72
2021/04/20 00:40:18;;;;;;;34.88;21.08;;;6.20;99.90;;;;;;4994361;28;20041;-73
2021/04/20 00:42:52;;;;;;;30.95;19.65;;;6.20;99.90;;;;;;4995562;28;20022;-73
2021/04/20 00:45:21;;;;;;;35.92;21.80;;;6.20;99.90;;;;;;4995493;28;20482;-73
2021/04/20 00:47:47;;;;;;;33.53;19.95;;;6.30;99.90;;;;;;4994209;28;20375;-72
2021/04/20 00:50:15;;;;;;;34.47;21.75;;;6.40;99.90;;;;;;4995414;28;20022;-73
2021/04/20 00:52:41;;;;;;;33.63;21.05;;;6.30;99.90;;;;;;4995406;28;20033;-73
2021/04/20 00:55:08;;;;;;;31.42;20.10;;;6.40;99.90;;;;;;4995334;28;20102;-72
2021/04/20 00:57:34;;;;;;;36.67;21.55;;;6.30;99.90;;;;;;4995158;28;20125;-73
2021/04/20 00:59:59;;;;;;;36.55;22.05;;;6.30;99.90;;;;;;4994065;28;20097;-73
2021/04/20 01:02:26;;;;;;;35.90;20.73;;;6.20;99.90;;;;;;4995125;28;20030;-73
2021/04/20 01:04:52;;;;;;;37.53;22.92;;;6.30;99.90;;;;;;4993907;28;20031;-73
2021/04/20 01:07:18;;;;;;;35.97;21.42;;;6.40;99.90;;;;;;4995014;28;20110;-73
2021/04/20 01:09:45;;;;;;;36.03;21.75;;;6.40;99.90;;;;;;4995003;28;20018;-73
2021/04/20 01:12:11;;;;;;;43.35;22.75;;;6.30;99.90;;;;;;4994522;28;20021;-73
2021/04/20 01:14:37;;;;;;;38.25;22.40;;;6.20;99.90;;;;;;4994922;28;20034;-73
2021/04/20 01:17:03;;;;;;;35.38;21.63;;;6.20;99.90;;;;;;4993662;28;20109;-73
2021/04/20 01:19:31;;;;;;;36.17;22.45;;;6.10;99.90;;;;;;4993628;28;20022;-72
2021/04/20 01:21:59;;;;;;;35.88;23.13;;;6.10;99.90;;;;;;4994708;28;20038;-72
2021/04/20 01:24:29;;;;;;;42.17;24.13;;;6.10;99.90;;;;;;4994820;28;20018;-73
2021/04/20 01:26:57;;;;;;;37.78;23.20;;;6.00;99.90;;;;;;4994790;28;20509;-73
2021/04/20 01:29:23;;;;;;;39.15;23.67;;;6.10;99.90;;;;;;4994763;28;20027;-73
2021/04/20 01:31:50;;;;;;;38.25;23.13;;;6.20;99.90;;;;;;4977120;28;20081;-73
2021/04/20 01:34:16;;;;;;;37.90;22.35;;;6.20;99.90;;;;;;4993359;28;20430;-73
2021/04/20 01:36:42;;;;;;;36.05;22.38;;;6.10;99.90;;;;;;4993590;28;20049;-73
2021/04/20 01:39:10;;;;;;;39.15;23.02;;;6.00;99.90;;;;;;4994589;28;20034;-73
2021/04/20 01:41:38;;;;;;;34.40;22.13;;;6.00;99.90;;;;;;4994418;28;20391;-73
2021/04/20 01:44:05;;;;;;;38.22;24.48;;;6.00;99.90;;;;;;5009431;28;20062;-73
2021/04/20 01:46:31;;;;;;;35.90;22.17;;;6.10;99.90;;;;;;4994298;28;20037;-73
2021/04/20 01:48:57;;;;;;;37.28;22.05;;;6.20;99.90;;;;;;4993161;28;20026;-72
2021/04/20 01:51:26;;;;;;;36.30;22.52;;;6.10;99.90;;;;;;4993058;28;20026;-72
2021/04/20 01:53:52;;;;;;;40.67;23.25;;;6.10;99.90;;;;;;4994233;28;20034;-73
2021/04/20 01:56:18;;;;;;;36.25;23.02;;;6.10;99.90;;;;;;4994119;28;20030;-73
2021/04/20 01:58:45;;;;;;;36.00;22.67;;;6.20;99.90;;;;;;4994064;28;20030;-73
2021/04/20 02:01:20;;;;;;;35.17;22.08;;;6.20;99.90;;;;;;4993975;28;20084;-73
2021/04/20 02:03:48;;;;;;;36.97;22.60;;;6.20;99.90;;;;;;4994068;28;20022;-73
2021/04/20 02:06:16;;;;;;;36.33;22.40;;;6.20;99.90;;;;;;4992714;28;20018;-72
2021/04/20 02:08:43;;;;;;;35.92;22.02;;;6.30;99.90;;;;;;4994013;28;20117;-73
2021/04/20 02:11:11;;;;;;;38.58;22.92;;;6.30;99.90;;;;;;4993920;28;20367;-73
2021/04/20 02:13:37;;;;;;;42.15;24.67;;;6.30;99.90;;;;;;4993884;28;20027;-73
2021/04/20 02:16:05;;;;;;;35.38;22.08;;;6.30;99.90;;;;;;4993770;28;20057;-73
2021/04/20 02:18:38;;;;;;;35.25;21.08;;;6.40;99.90;;;;;;4993839;28;20085;-72
2021/04/20 02:21:04;;;;;;;36.60;21.83;;;6.50;99.90;;;;;;4993772;28;20034;-73
2021/04/20 02:23:31;;;;;;;36.70;22.15;;;6.60;99.90;;;;;;4992918;28;20025;-73
2021/04/20 02:26:12;;;;;;;30.20;20.17;;;6.50;99.90;;;;;;5008766;28;20030;-73
2021/04/20 02:28:38;;;;;;;37.27;21.67;;;6.60;99.90;;;;;;4993693;28;20433;-73
2021/04/20 02:31:07;;;;;;;37.70;21.60;;;6.50;99.90;;;;;;4993534;28;20030;-73
2021/04/20 02:33:33;;;;;;;37.70;22.48;;;6.20;99.90;;;;;;4993419;28;20474;-73
2021/04/20 02:36:00;;;;;;;31.98;20.40;;;6.10;99.90;;;;;;4976029;28;20073;-73
2021/04/20 02:38:27;;;;;;;36.42;22.65;;;6.10;99.90;;;;;;4993381;28;20022;-72
2021/04/20 02:40:58;;;;;;;32.17;21.33;;;6.20;99.90;;;;;;4993294;28;20161;-73
2021/04/20 02:43:25;;;;;;;37.63;22.08;;;6.20;99.90;;;;;;4992147;28;20026;-73
2021/04/20 02:45:56;;;;;;;38.00;22.65;;;6.30;99.90;;;;;;5008345;28;20353;-73
2021/04/20 02:48:23;;;;;;;39.20;23.35;;;6.30;99.90;;;;;;4993323;28;20035;-73
2021/04/20 02:50:50;;;;;;;39.13;22.58;;;6.20;99.90;;;;;;4991943;28;20077;-72
2021/04/20 02:53:17;;;;;;;35.65;22.58;;;6.20;99.90;;;;;;4993212;28;20033;-72
2021/04/20 02:55:44;;;;;;;35.17;22.70;;;6.20;99.90;;;;;;4993193;28;20105;-73
2021/04/20 02:58:15;;;;;;;36.30;22.38;;;6.10;99.90;;;;;;4992975;28;20430;-73
2021/04/20 03:00:46;;;;;;;36.42;22.88;;;6.10;99.90;;;;;;4992974;28;20382;-73
2021/04/20 03:03:15;;;;;;;41.43;23.83;;;5.90;99.90;;;;;;4993068;28;20027;-72
2021/04/20 03:05:42;;;;;;;37.13;21.95;;;5.90;99.90;;;;;;4992900;28;20022;-73
2021/04/20 03:08:08;;;;;;;36.85;21.55;;;6.00;99.90;;;;;;4991677;28;20022;-73
2021/04/20 03:10:37;;;;;;;37.05;21.73;;;6.00;99.90;;;;;;4992943;28;20026;-72
2021/04/20 03:13:03;;;;;;;40.30;22.88;;;5.90;99.90;;;;;;4992883;28;20026;-73
2021/04/20 03:15:30;;;;;;;35.05;22.73;;;5.90;99.90;;;;;;4992760;28;20031;-73
2021/04/20 03:17:56;;;;;;;40.65;23.15;;;5.80;99.90;;;;;;4992845;28;20097;-73
2021/04/20 03:20:22;;;;;;;38.17;21.55;;;5.90;99.90;;;;;;4992771;28;20110;-73
2021/04/20 03:22:49;;;;;;;38.40;22.92;;;5.90;99.90;;;;;;4991497;28;20126;-73
2021/04/20 03:25:22;;;;;;;39.13;23.60;;;6.00;99.90;;;;;;4992751;28;20029;-73
2021/04/20 03:27:53;;;;;;;38.60;22.38;;;6.10;99.90;;;;;;4992989;28;20382;-72
2021/04/20 03:30:22;;;;;;;39.63;21.52;;;6.10;99.90;;;;;;4992770;28;20034;-73
2021/04/20 03:33:16;;;;;;;38.88;23.95;;;6.10;99.90;;;;;;4992672;28;20041;-73
2021/04/20 03:36:10;;;;;;;34.80;22.05;;;6.20;99.90;;;;;;4987652;28;20510;-73
2021/04/20 03:38:49;;;;;;;39.35;22.60;;;6.10;99.90;;;;;;4996759;28;20026;-73
2021/04/20 03:41:20;;;;;;;35.50;22.45;;;6.20;99.90;;;;;;4996762;28;20036;-73
2021/04/20 03:43:49;;;;;;;38.42;22.92;;;6.30;99.90;;;;;;4996716;28;20037;-73
2021/04/20 03:46:25;;;;;;;33.20;22.08;;;6.40;99.90;;;;;;4996612;28;20019;-72
2021/04/20 03:49:17;;;;;;;36.22;22.27;;;6.40;99.90;;;;;;4996773;28;20072;-72
2021/04/20 03:51:46;;;;;;;35.95;20.33;;;6.50;99.90;;;;;;4994511;28;20077;-73
2021/04/20 03:54:14;;;;;;;32.83;21.20;;;6.50;99.90;;;;;;4995283;28;20034;-73
2021/04/20 03:56:44;;;;;;;40.90;22.15;;;6.50;99.90;;;;;;4996264;28;20018;-73
2021/04/20 03:59:11;;;;;;;43.40;23.95;;;6.60;99.90;;;;;;4996270;28;20030;-73
2021/04/20 04:01:43;;;;;;;33.50;21.45;;;6.60;99.90;;;;;;4996235;28;20034;-73
2021/04/20 04:04:12;;;;;;;34.45;22.00;;;6.70;99.90;;;;;;4996350;28;20031;-73
2021/04/20 04:06:40;;;;;;;39.40;24.02;;;6.70;99.90;;;;;;4994865;28;20022;-73
2021/04/20 04:09:08;;;;;;;39.15;24.20;;;6.70;99.90;;;;;;4996237;28;20153;-73
2021/04/20 04:11:37;;;;;;;39.45;23.30;;;6.60;99.90;;;;;;4995273;28;20496;-73
2021/04/20 04:14:05;;;;;;;42.45;24.10;;;6.50;99.90;;;;;;4995988;28;20129;-73
2021/04/20 04:16:32;;;;;;;39.13;23.88;;;6.60;99.90;;;;;;4995999;28;20034;-73
2021/04/20 04:19:00;;;;;;;34.88;22.80;;;6.50;99.90;;;;;;4995951;28;20054;-73
2021/04/20 04:21:31;;;;;;;35.72;22.35;;;6.50;99.90;;;;;;4995892;28;20364;-72
2021/04/20 04:24:02;;;;;;;40.33;23.65;;;6.60;99.90;;;;;;4996010;28;20026;-73
2021/04/20 04:26:31;;;;;;;37.03;23.13;;;6.60;99.90;;;;;;4994601;28;20117;-72
2021/04/20 04:28:58;;;;;;;40.72;23.60;;;6.60;99.90;;;;;;4995851;28;20030;-73
2021/04/20 04:31:26;;;;;;;40.17;22.33;;;6.60;99.90;;;;;;4995822;28;20034;-73
2021/04/20 04:33:53;;;;;;;44.00;24.95;;;6.70;99.90;;;;;;4995832;28;20022;-73
2021/04/20 04:36:19;;;;;;;36.17;23.02;;;6.70;99.90;;;;;;4995705;28;20030;-73
2021/04/20 04:38:45;;;;;;;44.35;25.05;;;6.70;99.90;;;;;;4995503;28;20026;-73
2021/04/20 04:41:11;;;;;;;38.50;23.55;;;6.80;99.90;;;;;;4995509;28;20367;-73
2021/04/20 04:43:39;;;;;;;38.72;22.65;;;6.70;99.90;;;;;;4995479;28;20077;-73
2021/04/20 04:46:05;;;;;;;38.35;23.98;;;6.50;99.90;;;;;;4995084;28;20506;-73
2021/04/20 04:48:31;;;;;;;41.28;24.13;;;6.40;99.90;;;;;;4994235;28;20053;-73
2021/04/20 04:51:00;;;;;;;35.75;23.48;;;6.50;99.90;;;;;;4995661;28;20038;-73
2021/04/20 04:53:26;;;;;;;38.13;23.20;;;6.50;99.90;;;;;;4994087;28;20022;-73
2021/04/20 04:56:12;;;;;;;41.70;23.70;;;6.40;99.90;;;;;;4995292;28;20057;-72
2021/04/20 04:58:39;;;;;;;40.25;24.92;;;6.30;99.90;;;;;;4995228;28;20037;-73
2021/04/20 05:01:06;;;;;;;44.20;25.05;;;6.20;99.90;;;;;;4995232;28;20026;-73
2021/04/20 05:03:31;;;;;;;41.00;24.00;;;6.10;99.90;;;;;;4995200;28;20462;-73
2021/04/20 05:06:01;;;;;;;45.30;25.50;;;6.20;99.90;;;;;;4995082;28;20041;-73
2021/04/20 05:08:28;;;;;;;40.13;22.90;;;6.20;99.90;;;;;;4995075;28;20026;-73
2021/04/20 05:11:00;;;;;;;44.08;25.13;;;6.40;99.90;;;;;;4993851;28;20146;-73
2021/04/20 05:13:26;;;;;;;41.33;24.13;;;6.40;99.90;;;;;;4994992;28;20105;-73
2021/04/20 05:15:53;;;;;;;49.95;27.15;;;6.50;99.90;;;;;;4977409;28;20274;-73
2021/04/20 05:18:19;;;;;;;47.25;25.65;;;6.50;99.90;;;;;;4994835;28;20026;-72
2021/04/20 05:20:46;;;;;;;42.55;26.35;;;6.50;99.90;;;;;;4993437;28;20034;-73
2021/04/20 05:23:16;;;;;;;41.80;24.63;;;6.60;99.90;;;;;;4994584;28;20065;-73
2021/04/20 05:25:43;;;;;;;43.55;25.73;;;6.50;99.90;;;;;;4993603;28;20033;-73
2021/04/20 05:28:09;;;;;;;48.72;27.15;;;6.60;99.90;;;;;;4994565;28;20018;-72
2021/04/20 05:30:36;;;;;;;45.00;29.13;;;6.60;99.90;;;;;;4994557;28;20542;-72
2021/04/20 05:33:03;;;;;;;50.38;28.88;;;6.70;99.90;;;;;;4994474;28;20026;-73
2021/04/20 05:35:29;;;;;;;42.88;25.77;;;6.70;99.90;;;;;;4994659;28;20105;-73
2021/04/20 05:37:55;;;;;;;44.65;26.60;;;6.60;99.90;;;;;;4994445;28;20033;-73
2021/04/20 05:40:25;;;;;;;43.70;25.35;;;6.70;99.90;;;;;;4994410;28;20030;-73
2021/04/20 05:42:52;;;;;;;54.25;28.63;;;6.60;99.90;;;;;;4994283;28;20030;-72
2021/04/20 05:45:18;;;;;;;46.35;28.50;;;6.50;99.90;;;;;;4994306;28;20061;-73
2021/04/20 05:47:46;;;;;;;44.67;27.02;;;6.60;99.90;;;;;;4994488;28;20022;-73
2021/04/20 05:50:19;;;;;;;43.83;26.73;;;6.50;99.90;;;;;;4994235;28;20461;-73
2021/04/20 05:52:45;;;;;;;50.72;28.92;;;6.50;99.90;;;;;;4993009;28;20030;-73
2021/04/20 05:55:11;;;;;;;44.47;27.40;;;6.50;99.90;;;;;;4992777;28;20387;-73
2021/04/20 05:57:37;;;;;;;45.78;27.08;;;6.40;99.90;;;;;;5000627;28;20073;-73
2021/04/20 06:00:06;;;;;;;44.58;27.92;;;6.20;99.90;;;;;;4995872;28;20080;-73
2021/04/20 06:02:36;;;;;;;55.45;29.08;;;6.20;99.90;;;;;;4995798;28;20539;-73
2021/04/20 06:05:11;;;;;;;48.55;28.52;;;6.30;99.90;;;;;;5013567;28;20037;-72
2021/04/20 06:07:41;;;;;;;46.85;28.05;;;6.40;99.90;;;;;;5011303;28;20080;-72
2021/04/20 06:10:09;;;;;;;49.45;27.40;;;6.30;99.90;;;;;;4995852;28;20471;-73
2021/04/20 06:12:36;;;;;;;45.40;27.63;;;6.30;99.90;;;;;;4993845;28;20165;-73
2021/04/20 06:15:03;;;;;;;53.17;29.90;;;6.30;99.90;;;;;;4993732;28;20030;-72
2021/04/20 06:17:29;;;;;;;49.97;28.80;;;6.40;99.90;;;;;;4993869;28;20027;-72
2021/04/20 06:19:55;;;;;;;46.85;28.27;;;6.50;99.90;;;;;;4993307;28;20042;-72
2021/04/20 06:22:21;;;;;;;49.75;29.73;;;6.70;99.90;;;;;;4992183;28;20648;-72
2021/04/20 06:24:47;;;;;;;45.80;27.88;;;6.70;99.90;;;;;;4996654;28;20103;-72
2021/04/20 06:27:14;;;;;;;48.97;27.42;;;6.70;99.90;;;;;;5005577;28;20026;-72
2021/04/20 06:29:40;;;;;;;43.97;27.42;;;6.60;99.90;;;;;;5011381;28;20123;-72
2021/04/20 06:32:06;;;;;;;49.05;28.88;;;6.70;99.90;;;;;;5002997;28;20220;-72
2021/04/20 06:34:33;;;;;;;48.40;28.80;;;6.80;99.90;;;;;;5007764;28;20027;-72
2021/04/20 06:36:59;;;;;;;47.63;29.02;;;7.00;99.90;;;;;;4998322;28;20080;-73
2021/04/20 06:39:25;;;;;;;41.00;25.25;;;7.00;99.90;;;;;;5007583;28;20037;-74
2021/04/20 06:41:55;;;;;;;42.60;27.27;;;6.90;99.90;;;;;;5012596;28;20030;-75
2021/04/20 06:44:28;;;;;;;42.83;26.92;;;6.90;99.90;;;;;;4996178;28;20019;-73
2021/04/20 06:47:16;;;;;;;52.25;29.15;;;7.00;99.90;;;;;;5001676;28;20390;-72
2021/04/20 06:49:52;;;;;;;42.45;27.05;;;7.10;99.90;;;;;;5000482;28;20073;-73
2021/04/20 06:52:44;;;;;;;41.92;26.00;;;7.10;99.90;;;;;;5011115;28;20426;-73
2021/04/20 06:55:22;;;;;;;42.70;26.73;;;7.00;99.90;;;;;;4998281;28;20478;-73
2021/04/20 06:58:00;;;;;;;48.88;27.58;;;6.70;99.90;;;;;;4998454;28;20037;-73
2021/04/20 07:00:28;;;;;;;46.40;28.35;;;6.70;99.90;;;;;;5010913;28;20053;-73
2021/04/20 07:03:10;;;;;;;46.55;27.67;;;6.80;99.90;;;;;;5005737;28;20441;-75
2021/04/20 07:05:45;;;;;;;49.15;30.35;;;7.00;99.90;;;;;;4995745;28;20425;-75
2021/04/20 07:08:19;;;;;;;49.78;30.63;;;6.90;99.90;;;;;;4991173;28;20022;-75
2021/04/20 07:10:47;;;;;;;50.28;30.83;;;7.00;99.90;;;;;;5001184;28;20116;-72
2021/04/20 07:13:17;;;;;;;42.30;26.95;;;7.10;99.90;;;;;;4974852;28;20033;-74
2021/04/20 07:15:57;;;;;;;52.42;30.95;;;7.00;99.90;;;;;;4992432;28;20026;-72
2021/04/20 07:18:57;;;;;;;53.85;32.15;;;7.00;99.90;;;;;;5006560;28;20030;-75
2021/04/20 07:21:48;;;;;;;50.67;30.83;;;7.20;99.90;;;;;;4998211;28;20018;-74
2021/04/20 07:24:19;;;;;;;52.78;30.58;;;7.10;99.90;;;;;;5010835;28;20058;-74
2021/04/20 07:27:15;;;;;;;48.03;28.75;;;7.20;99.90;;;;;;5001752;28;20073;-74
2021/04/20 07:30:01;;;;;;;50.80;29.05;;;7.10;99.90;;;;;;5006760;28;20065;-75
2021/04/20 07:32:43;;;;;;;50.72;30.52;;;7.10;99.90;;;;;;4998462;28;20030;-75
2021/04/20 07:35:40;;;;;;;53.28;30.58;;;7.20;99.90;;;;;;5010086;28;20026;-73
2021/04/20 07:38:26;;;;;;;51.03;28.98;;;7.10;99.90;;;;;;5007204;28;20397;-75
2021/04/20 07:41:10;;;;;;;55.25;29.85;;;7.20;99.90;;;;;;5010313;28;20502;-72
2021/04/20 07:43:52;;;;;;;54.45;30.02;;;7.10;99.90;;;;;;4994195;28;20026;-72
2021/04/20 07:46:22;;;;;;;49.30;29.33;;;6.90;99.90;;;;;;5007782;28;20131;-73
2021/04/20 07:48:59;;;;;;;51.55;30.17;;;6.90;99.90;;;;;;4998136;28;20026;-72
2021/04/20 07:51:49;;;;;;;50.53;31.20;;;6.90;99.90;;;;;;4990612;28;20030;-72
2021/04/20 07:54:37;;;;;;;50.13;31.13;;;7.00;99.90;;;;;;5005910;28;20064;-73
2021/04/20 07:57:25;;;;;;;52.63;30.83;;;7.30;99.90;;;;;;4992519;28;20030;-72
2021/04/20 07:59:56;;;;;;;50.90;31.48;;;7.10;99.90;;;;;;4990882;28;20080;-73
2021/04/20 08:03:17;;;;;;;54.97;32.20;;;7.30;99.90;;;;;;4991844;28;20026;-72
2021/04/20 08:05:56;;;;;;;59.63;33.15;;;7.10;99.90;;;;;;4945373;28;20112;-72
2021/04/20 08:08:30;;;;;;;56.20;32.42;;;7.10;99.90;;;;;;5013780;28;20024;-72
2021/04/20 08:11:17;;;;;;;58.90;31.58;;;7.10;99.90;;;;;;5002910;28;20026;-72
2021/04/20 08:14:04;;;;;;;51.97;31.13;;;7.20;99.90;;;;;;4993640;28;20379;-73
2021/04/20 08:16:48;;;;;;;53.42;32.22;;;7.10;99.90;;;;;;5011481;28;20112;-72
2021/04/20 08:19:27;;;;;;;57.60;34.15;;;7.10;99.90;;;;;;5006505;28;20034;-72
2021/04/20 08:21:55;;;;;;;61.88;34.10;;;7.20;99.90;;;;;;4992290;28;20073;-72
2021/04/20 08:24:31;;;;;;;51.45;30.77;;;7.30;99.90;;;;;;5015074;28;20033;-72
2021/04/20 08:27:13;;;;;;;53.50;32.95;;;7.40;99.90;;;;;;5015068;28;20033;-72
2021/04/20 08:29:41;;;;;;;;;;;7.40;99.90;;;;;;5015327;28;20037;-72
2021/04/20 08:32:12;;;;;;;49.67;31.85;;;7.50;99.90;;;;;;5005223;28;19919;-73
2021/04/20 08:34:51;;;;;;;55.40;32.95;;;7.60;99.90;;;;;;4995184;28;20482;-72
2021/04/20 08:37:31;;;;;;;53.33;32.47;;;7.60;99.90;;;;;;4999267;28;20026;-73
2021/04/20 08:40:16;;;;;;;47.28;30.58;;;7.60;99.90;;;;;;5004235;28;20358;-72
2021/04/20 08:43:06;;;;;;;51.30;31.42;;;7.50;99.90;;;;;;5001137;28;20033;-73
2021/04/20 08:45:51;;;;;;;52.58;32.20;;;7.60;99.90;;;;;;5007636;28;20363;-74
2021/04/20 08:48:23;;;;;;;50.33;30.65;;;7.80;99.90;;;;;;5004586;28;20455;-73
2021/04/20 08:51:25;;;;;;;51.33;30.48;;;7.70;99.90;;;;;;4996484;28;20033;-73
2021/04/20 08:54:09;;;;;;;50.80;30.48;;;7.70;99.90;;;;;;4970808;28;20038;-73
2021/04/20 08:56:58;;;;;;;53.83;33.17;;;7.80;99.90;;;;;;4998336;28;20430;-74
2021/04/20 08:59:52;;;;;;;53.92;28.23;;;8.10;99.90;;;;;;4997247;28;20063;-73
2021/04/20 09:02:22;;;;;;;45.03;29.98;;;8.20;99.90;;;;;;4996760;28;20033;-73
2021/04/20 09:05:07;;;;;;;52.85;31.27;;;8.10;99.90;;;;;;4999669;28;20109;-73
2021/04/20 09:07:39;;;;;;;46.38;30.00;;;8.30;99.90;;;;;;5012934;28;20029;-73
2021/04/20 09:10:09;;;;;;;;;;;8.40;99.90;;;;;;5003902;28;20022;-73
2021/04/20 09:12:37;;;;;;;44.13;28.38;;;8.50;99.90;;;;;;5000162;28;19906;-73
2021/04/20 09:15:07;;;;;;;46.88;29.30;;;8.40;99.90;;;;;;5013945;28;20128;-73
2021/04/20 09:17:39;;;;;;;47.20;29.50;;;8.40;99.90;;;;;;5014180;28;20105;-73
2021/04/20 09:20:14;;;;;;;42.55;27.70;;;8.50;99.90;;;;;;5013870;28;20121;-73
2021/04/20 09:22:58;;;;;;;46.60;29.00;;;8.40;99.90;;;;;;5009482;28;20112;-73
2021/04/20 09:25:31;;;;;;;46.03;28.75;;;8.30;99.90;;;;;;4994593;28;20037;-73
2021/04/20 09:28:07;;;;;;;47.58;29.25;;;8.50;99.90;;;;;;5010745;28;20026;-73
2021/04/20 09:30:54;;;;;;;50.05;30.90;;;8.50;99.90;;;;;;4994366;28;20030;-73
2021/04/20 09:33:26;;;;;;;47.45;29.80;;;8.50;99.90;;;;;;4996664;28;20064;-73
2021/04/20 09:35:53;;;;;;;46.28;29.38;;;8.30;99.90;;;;;;5009096;28;20095;-73
2021/04/20 09:38:20;;;;;;;45.28;28.50;;;8.20;99.90;;;;;;5003348;28;20037;-73
2021/04/20 09:40:48;;;;;;;46.08;28.33;;;8.30;99.90;;;;;;5012366;28;20022;-73
2021/04/20 09:43:31;;;;;;;43.97;28.13;;;8.60;99.90;;;;;;5008280;28;20027;-72
2021/04/20 09:46:08;;;;;;;45.50;28.55;;;8.70;99.90;;;;;;4994085;28;20101;-73
2021/04/20 09:48:40;;;;;;;44.05;27.10;;;8.70;99.90;;;;;;4993836;28;20026;-73
2021/04/20 09:51:24;;;;;;;41.25;26.55;;;9.10;99.90;;;;;;5003594;28;20030;-76
2021/04/20 09:54:24;;;;;;;38.22;24.90;;;9.40;99.90;;;;;;4993965;28;20034;-73
2021/04/20 09:56:56;;;;;;;39.30;25.23;;;9.80;99.90;;;;;;4993808;28;20065;-73
2021/04/20 09:59:27;;;;;;;36.25;25.00;;;9.80;99.90;;;;;;4994488;28;20099;-73
2021/04/20 10:02:04;;;;;;;37.38;25.02;;;10.00;99.90;;;;;;5008396;28;20038;-73
2021/04/20 10:04:42;;;;;;;39.72;25.00;;;9.90;99.90;;;;;;5012479;28;20363;-73
2021/04/20 10:07:39;;;;;;;41.38;25.85;;;9.80;99.90;;;;;;5012965;28;20064;-73
2021/04/20 10:10:33;;;;;;;36.78;25.73;;;9.70;99.90;;;;;;5012202;28;20026;-73
2021/04/20 10:13:41;;;;;;;41.50;25.90;;;9.70;99.90;;;;;;4995583;28;20101;-72
2021/04/20 10:16:12;;;;;;;39.92;25.20;;;9.70;99.90;;;;;;4993283;28;20436;-73
2021/04/20 10:18:46;;;;;;;38.35;24.25;;;9.90;99.90;;;;;;4975440;28;20027;-74
2021/04/20 10:21:19;;;;;;;35.33;23.35;;;9.70;99.90;;;;;;5012806;28;20116;-74
2021/04/20 10:23:56;;;;;;;36.35;24.17;;;9.70;99.90;;;;;;5027799;28;20022;-73
2021/04/20 10:27:09;;;;;;;34.95;22.90;;;10.00;99.90;;;;;;5012872;28;20022;-73
2021/04/20 10:29:41;;;;;;;34.60;23.65;;;9.90;99.90;;;;;;4935998;29;20051;-74
2021/04/20 10:32:11;;;;;;;34.38;22.77;;;10.00;99.90;;;;;;5002821;28;20080;-73
2021/04/20 10:34:48;;;;;;;35.42;23.17;;;10.40;99.90;;;;;;5001033;28;20026;-73
2021/04/20 10:37:15;;;;;;;36.20;24.10;;;10.30;99.90;;;;;;4993163;28;20019;-73
2021/04/20 10:39:51;;;;;;;39.55;25.10;;;10.50;99.90;;;;;;4992972;28;20029;-73
2021/04/20 10:42:29;;;;;;;37.70;23.13;;;10.40;99.90;;;;;;4991743;28;20045;-73
2021/04/20 10:44:55;;;;;;;38.28;24.10;;;10.50;99.90;;;;;;4992208;28;20034;-73
2021/04/20 10:47:23;;;;;;;35.30;23.02;;;10.40;99.90;;;;;;4991686;28;20030;-73
2021/04/20 10:49:54;;;;;;;45.13;27.00;;;10.30;99.90;;;;;;4992775;28;20023;-74
2021/04/20 10:52:23;;;;;;;40.17;24.63;;;10.10;99.90;;;;;;4992550;28;20108;-73
2021/04/20 10:54:50;;;;;;;34.58;21.70;;;10.00;99.90;;;;;;4993020;28;20026;-73
2021/04/20 10:57:16;;;;;;;39.97;23.52;;;9.90;99.90;;;;;;5027172;28;20507;-73
2021/04/20 10:59:50;;;;;;;42.45;25.42;;;9.80;99.90;;;;;;5011164;28;20053;-73
2021/04/20 11:02:22;;;;;;;38.40;24.27;;;9.60;99.90;;;;;;4993696;28;20031;-73
2021/04/20 11:04:51;;;;;;;37.33;22.75;;;9.70;99.90;;;;;;4991211;28;20100;-73
2021/04/20 11:07:20;;;;;;;39.10;23.45;;;9.80;99.90;;;;;;4999125;28;20057;-73
2021/04/20 11:09:48;;;;;;;37.35;24.05;;;9.60;99.90;;;;;;5012214;28;20017;-73
2021/04/20 11:12:19;;;;;;;47.58;25.63;;;9.70;99.90;;;;;;5012102;28;20049;-73
2021/04/20 11:14:47;;;;;;;44.22;26.23;;;9.80;99.90;;;;;;5010681;28;20050;-73
2021/04/20 11:17:23;;;;;;;40.65;26.38;;;9.80;99.90;;;;;;5010330;28;20394;-73
2021/04/20 11:20:06;;;;;;;49.45;27.42;;;9.80;99.90;;;;;;5011998;28;20026;-73
2021/04/20 11:22:37;;;;;;;49.00;30.20;;;9.70;99.90;;;;;;5009499;28;20440;-73
2021/04/20 11:25:09;;;;;;;46.63;29.05;;;9.70;99.90;;;;;;4992204;28;20045;-73
2021/04/20 11:27:36;;;;;;;50.10;30.20;;;9.60;99.90;;;;;;4992504;28;20034;-73
2021/04/20 11:30:13;;;;;;;52.90;31.35;;;9.60;99.90;;;;;;5003797;28;20101;-72
2021/04/20 11:32:48;;;;;;;50.30;30.10;;;9.60;99.90;;;;;;5018987;23;20045;-71
2021/04/20 11:35:17;;;;;;;44.40;29.08;;;9.70;99.90;;;;;;5010275;28;20026;-72
2021/04/20 11:37:45;;;;;;;47.83;28.73;;;9.80;99.90;;;;;;5018056;28;20381;-71
2021/04/20 11:40:18;;;;;;;48.28;30.10;;;9.60;99.90;;;;;;5013852;28;20492;-71
2021/04/20 11:42:48;;;;;;;46.30;29.67;;;9.50;99.90;;;;;;5015560;28;20021;-71
2021/04/20 11:45:18;;;;;;;46.20;27.60;;;9.70;99.90;;;;;;5019422;28;20061;-71
2021/04/20 11:47:59;;;;;;;38.50;25.83;;;9.70;99.90;;;;;;5019073;28;20018;-71
2021/04/20 11:50:28;;;;;;;44.63;27.23;;;9.60;99.90;;;;;;5017934;28;20025;-72
2021/04/20 11:52:59;;;;;;;40.58;26.02;;;9.50;99.90;;;;;;5018575;28;20390;-71
2021/04/20 11:55:33;;;;;;;40.47;25.58;;;9.70;99.90;;;;;;5026042;28;20540;-72
2021/04/20 11:58:05;;;;;;;42.22;24.92;;;9.70;99.90;;;;;;5027120;28;20432;-72
2021/04/20 12:00:33;;;;;;;43.80;25.75;;;9.70;99.90;;;;;;5020659;28;20478;-72
2021/04/20 12:03:11;;;;;;;34.08;22.20;;;9.60;99.90;;;;;;5021961;28;20465;-72
2021/04/20 12:05:39;;;;;;;36.08;22.55;;;9.40;99.90;;;;;;5021584;28;20038;-72
2021/04/20 12:08:09;;;;;;;37.70;22.27;;;9.50;99.90;;;;;;5004662;28;20025;-71
2021/04/20 12:10:36;;;;;;;35.03;21.20;;;9.40;99.90;;;;;;5032547;28;20508;-72
2021/04/20 12:13:03;;;;;;;32.88;22.08;;;9.40;99.90;;;;;;5020732;28;20435;-71
2021/04/20 12:15:29;;;;;;;34.70;22.05;;;9.70;99.90;;;;;;5024317;28;20030;-71
2021/04/20 12:17:57;;;;;;;32.05;20.48;;;9.90;99.90;;;;;;5023152;28;20036;-74
2021/04/20 12:20:27;;;;;;;28.77;18.98;;;9.90;99.90;;;;;;5014489;28;20030;-74
2021/04/20 12:22:55;;;;;;;29.55;19.15;;;9.90;99.90;;;;;;5024121;28;20493;-74
2021/04/20 12:25:22;;;;;;;29.65;19.67;;;10.10;99.90;;;;;;5027092;28;20455;-74
2021/04/20 12:27:53;;;;;;;28.63;18.75;;;10.20;99.90;;;;;;5021086;28;20109;-74
2021/04/20 12:30:22;;;;;;;29.60;19.00;;;10.20;99.90;;;;;;5023410;28;20620;-74
2021/04/20 12:32:48;;;;;;;26.40;16.17;;;10.30;99.90;;;;;;5019018;28;20490;-74
2021/04/20 12:35:15;;;;;;;28.20;18.67;;;10.30;99.90;;;;;;5023421;28;20025;-74
2021/04/20 12:37:41;;;;;;;41.85;21.33;;;10.40;99.90;;;;;;5022833;28;20064;-74
2021/04/20 12:40:10;;;;;;;20.60;13.60;;;10.50;99.90;;;;;;5018625;28;20052;-74
2021/04/20 12:42:42;;;;;;;20.27;13.35;;;10.50;98.70;;;;;;5021242;28;20523;-74
2021/04/20 12:45:12;;;;;;;21.55;13.63;;;10.60;96.40;;;;;;5021896;28;20381;-74
2021/04/20 12:47:39;;;;;;;19.67;13.82;;;10.80;96.70;;;;;;5013983;28;20022;-74
2021/04/20 12:50:08;;;;;;;20.40;13.77;;;10.90;96.50;;;;;;5019356;28;20030;-74
2021/04/20 12:52:34;;;;;;;16.95;12.27;;;10.90;96.00;;;;;;5008493;28;20535;-74
2021/04/20 12:55:08;;;;;;;17.17;11.80;;;10.90;93.70;;;;;;5032756;28;20450;-74
2021/04/20 12:57:38;;;;;;;18.67;13.63;;;11.10;91.90;;;;;;5031751;28;20029;-74
2021/04/20 13:00:26;;;;;;;20.77;13.50;;;11.00;91.90;;;;;;5011624;28;20076;-73